Terminal Aerodrome Forecast
Issued by NWS Northern Indiana

Home | Current Version | Previous Version | Graphics & Text | Print | Product List | Glossary On
Versions: 1 2 3 4 5 6 7 8 9 10 11 12 13 14 15 16 17 18
786
FTUS43 KIWX 200537
TAFFWA
TAF
KFWA 200537Z 2006/2106 23014KT P6SM SCT250 WS020/24050KT
     FM201300 23011G19KT P6SM SCT035
     FM202000 22008KT 5SM BR BKN010
     FM210100 21005KT 1SM BR OVC007=

USA.gov is the U.S. government's official web portal to all federal, state and local government web resources and services.